sensor_id;sensor_type;location;lat;lon;timestamp;P1;durP1;ratioP1;P2;durP2;ratioP2
74335;SDS011;62755;-33.398;-70.572;2022-08-21T00:01:48;40.05;;;13.05;;
74335;SDS011;62755;-33.398;-70.572;2022-08-21T00:04:18;32.65;;;14.00;;
74335;SDS011;62755;-33.398;-70.572;2022-08-21T00:06:50;38.13;;;17.40;;
74335;SDS011;62755;-33.398;-70.572;2022-08-21T00:09:20;39.08;;;14.75;;
74335;SDS011;62755;-33.398;-70.572;2022-08-21T00:11:50;37.80;;;13.60;;
74335;SDS011;62755;-33.398;-70.572;2022-08-21T00:14:19;29.45;;;12.43;;
74335;SDS011;62755;-33.398;-70.572;2022-08-21T00:16:49;41.97;;;19.40;;
74335;SDS011;62755;-33.398;-70.572;2022-08-21T00:19:18;33.75;;;13.63;;
74335;SDS011;62755;-33.398;-70.572;2022-08-21T00:21:52;33.65;;;13.13;;
74335;SDS011;62755;-33.398;-70.572;2022-08-21T00:24:22;33.30;;;13.57;;
74335;SDS011;62755;-33.398;-70.572;2022-08-21T00:26:52;30.10;;;13.23;;
74335;SDS011;62755;-33.398;-70.572;2022-08-21T00:29:22;28.88;;;12.60;;
74335;SDS011;62755;-33.398;-70.572;2022-08-21T00:31:51;26.45;;;13.32;;
74335;SDS011;62755;-33.398;-70.572;2022-08-21T00:34:21;28.10;;;13.00;;
74335;SDS011;62755;-33.398;-70.572;2022-08-21T00:36:52;26.67;;;13.57;;
74335;SDS011;62755;-33.398;-70.572;2022-08-21T00:39:22;23.92;;;12.82;;
74335;SDS011;62755;-33.398;-70.572;2022-08-21T00:41:51;28.58;;;14.05;;
74335;SDS011;62755;-33.398;-70.572;2022-08-21T00:44:21;27.48;;;14.07;;
74335;SDS011;62755;-33.398;-70.572;2022-08-21T00:46:50;28.48;;;14.60;;
74335;SDS011;62755;-33.398;-70.572;2022-08-21T00:49:20;27.08;;;14.35;;
74335;SDS011;62755;-33.398;-70.572;2022-08-21T00:51:50;27.10;;;13.88;;
74335;SDS011;62755;-33.398;-70.572;2022-08-21T00:54:24;23.50;;;12.73;;
74335;SDS011;62755;-33.398;-70.572;2022-08-21T00:56:59;20.90;;;12.50;;
74335;SDS011;62755;-33.398;-70.572;2022-08-21T00:59:33;25.75;;;13.20;;
74335;SDS011;62755;-33.398;-70.572;2022-08-21T01:02:05;36.88;;;17.92;;
74335;SDS011;62755;-33.398;-70.572;2022-08-21T01:04:36;23.55;;;13.57;;
74335;SDS011;62755;-33.398;-70.572;2022-08-21T01:07:08;40.13;;;16.30;;
74335;SDS011;62755;-33.398;-70.572;2022-08-21T01:09:38;26.58;;;13.77;;
74335;SDS011;62755;-33.398;-70.572;2022-08-21T01:12:08;23.40;;;12.00;;
74335;SDS011;62755;-33.398;-70.572;2022-08-21T01:14:39;27.50;;;14.35;;
74335;SDS011;62755;-33.398;-70.572;2022-08-21T01:17:10;33.88;;;19.90;;
74335;SDS011;62755;-33.398;-70.572;2022-08-21T01:19:41;40.03;;;22.73;;
74335;SDS011;62755;-33.398;-70.572;2022-08-21T01:22:13;51.90;;;25.15;;
74335;SDS011;62755;-33.398;-70.572;2022-08-21T01:24:42;39.05;;;23.35;;
74335;SDS011;62755;-33.398;-70.572;2022-08-21T01:27:12;43.33;;;23.35;;
74335;SDS011;62755;-33.398;-70.572;2022-08-21T01:29:42;36.33;;;21.48;;
74335;SDS011;62755;-33.398;-70.572;2022-08-21T01:32:15;43.13;;;20.95;;
74335;SDS011;62755;-33.398;-70.572;2022-08-21T01:34:47;34.42;;;21.63;;
74335;SDS011;62755;-33.398;-70.572;2022-08-21T01:37:20;39.15;;;21.92;;
74335;SDS011;62755;-33.398;-70.572;2022-08-21T01:39:50;49.00;;;22.98;;
74335;SDS011;62755;-33.398;-70.572;2022-08-21T01:42:19;36.88;;;20.50;;
74335;SDS011;62755;-33.398;-70.572;2022-08-21T01:44:49;44.05;;;24.67;;
74335;SDS011;62755;-33.398;-70.572;2022-08-21T01:47:18;42.25;;;22.08;;
74335;SDS011;62755;-33.398;-70.572;2022-08-21T01:49:48;34.70;;;21.05;;
74335;SDS011;62755;-33.398;-70.572;2022-08-21T01:52:19;45.22;;;21.80;;
74335;SDS011;62755;-33.398;-70.572;2022-08-21T01:54:49;36.90;;;21.80;;
74335;SDS011;62755;-33.398;-70.572;2022-08-21T01:57:19;38.33;;;22.50;;
74335;SDS011;62755;-33.398;-70.572;2022-08-21T01:59:48;38.35;;;20.55;;
74335;SDS011;62755;-33.398;-70.572;2022-08-21T02:02:20;45.75;;;22.02;;
74335;SDS011;62755;-33.398;-70.572;2022-08-21T02:04:50;51.80;;;23.98;;
74335;SDS011;62755;-33.398;-70.572;2022-08-21T02:07:21;45.33;;;22.58;;
74335;SDS011;62755;-33.398;-70.572;2022-08-21T02:09:51;51.53;;;24.67;;
74335;SDS011;62755;-33.398;-70.572;2022-08-21T02:12:20;41.25;;;22.10;;
74335;SDS011;62755;-33.398;-70.572;2022-08-21T02:14:50;46.95;;;23.70;;
74335;SDS011;62755;-33.398;-70.572;2022-08-21T02:17:20;39.20;;;20.27;;
74335;SDS011;62755;-33.398;-70.572;2022-08-21T02:19:49;40.60;;;20.25;;
74335;SDS011;62755;-33.398;-70.572;2022-08-21T02:22:19;32.05;;;18.60;;
74335;SDS011;62755;-33.398;-70.572;2022-08-21T02:24:50;37.80;;;22.80;;
74335;SDS011;62755;-33.398;-70.572;2022-08-21T02:27:20;35.35;;;21.15;;
74335;SDS011;62755;-33.398;-70.572;2022-08-21T02:29:49;44.10;;;22.42;;
74335;SDS011;62755;-33.398;-70.572;2022-08-21T02:32:19;42.47;;;23.23;;
74335;SDS011;62755;-33.398;-70.572;2022-08-21T02:34:49;52.75;;;24.42;;
74335;SDS011;62755;-33.398;-70.572;2022-08-21T02:37:18;43.45;;;25.25;;
74335;SDS011;62755;-33.398;-70.572;2022-08-21T02:39:50;37.00;;;22.30;;
74335;SDS011;62755;-33.398;-70.572;2022-08-21T02:42:19;60.53;;;41.05;;
74335;SDS011;62755;-33.398;-70.572;2022-08-21T02:44:49;110.35;;;80.38;;
74335;SDS011;62755;-33.398;-70.572;2022-08-21T02:47:18;67.10;;;42.75;;
74335;SDS011;62755;-33.398;-70.572;2022-08-21T02:49:48;41.40;;;25.15;;
74335;SDS011;62755;-33.398;-70.572;2022-08-21T02:52:18;41.55;;;23.55;;
74335;SDS011;62755;-33.398;-70.572;2022-08-21T02:54:47;47.10;;;22.58;;
74335;SDS011;62755;-33.398;-70.572;2022-08-21T02:57:18;45.75;;;23.05;;
74335;SDS011;62755;-33.398;-70.572;2022-08-21T02:59:48;42.67;;;20.80;;
74335;SDS011;62755;-33.398;-70.572;2022-08-21T03:02:17;40.42;;;21.05;;
74335;SDS011;62755;-33.398;-70.572;2022-08-21T03:04:47;37.80;;;20.70;;
74335;SDS011;62755;-33.398;-70.572;2022-08-21T03:07:17;41.42;;;20.77;;
74335;SDS011;62755;-33.398;-70.572;2022-08-21T03:09:47;37.70;;;19.63;;
74335;SDS011;62755;-33.398;-70.572;2022-08-21T03:12:18;34.22;;;20.05;;
74335;SDS011;62755;-33.398;-70.572;2022-08-21T03:14:48;34.47;;;17.60;;
74335;SDS011;62755;-33.398;-70.572;2022-08-21T03:17:17;31.95;;;18.83;;
74335;SDS011;62755;-33.398;-70.572;2022-08-21T03:19:47;39.95;;;19.58;;
74335;SDS011;62755;-33.398;-70.572;2022-08-21T03:22:16;33.00;;;19.63;;
74335;SDS011;62755;-33.398;-70.572;2022-08-21T03:24:46;37.67;;;21.40;;
74335;SDS011;62755;-33.398;-70.572;2022-08-21T03:27:17;48.33;;;22.13;;
74335;SDS011;62755;-33.398;-70.572;2022-08-21T03:29:47;43.22;;;24.42;;
74335;SDS011;62755;-33.398;-70.572;2022-08-21T03:32:16;49.75;;;23.17;;
74335;SDS011;62755;-33.398;-70.572;2022-08-21T03:34:46;43.00;;;22.05;;
74335;SDS011;62755;-33.398;-70.572;2022-08-21T03:37:15;40.42;;;22.15;;
74335;SDS011;62755;-33.398;-70.572;2022-08-21T03:39:45;38.20;;;22.85;;
74335;SDS011;62755;-33.398;-70.572;2022-08-21T03:42:14;51.85;;;24.88;;
74335;SDS011;62755;-33.398;-70.572;2022-08-21T03:44:46;47.80;;;23.20;;
74335;SDS011;62755;-33.398;-70.572;2022-08-21T03:47:15;44.33;;;23.42;;
74335;SDS011;62755;-33.398;-70.572;2022-08-21T03:49:45;40.55;;;21.08;;
74335;SDS011;62755;-33.398;-70.572;2022-08-21T03:52:15;36.47;;;19.90;;
74335;SDS011;62755;-33.398;-70.572;2022-08-21T03:54:44;40.80;;;21.60;;
74335;SDS011;62755;-33.398;-70.572;2022-08-21T03:57:14;41.97;;;21.25;;
74335;SDS011;62755;-33.398;-70.572;2022-08-21T03:59:46;41.65;;;19.13;;
74335;SDS011;62755;-33.398;-70.572;2022-08-21T04:02:16;35.03;;;19.38;;
74335;SDS011;62755;-33.398;-70.572;2022-08-21T04:04:48;50.45;;;23.30;;
74335;SDS011;62755;-33.398;-70.572;2022-08-21T04:07:18;40.15;;;20.42;;
74335;SDS011;62755;-33.398;-70.572;2022-08-21T04:09:47;40.67;;;21.45;;
74335;SDS011;62755;-33.398;-70.572;2022-08-21T04:12:19;55.10;;;29.13;;
74335;SDS011;62755;-33.398;-70.572;2022-08-21T04:14:49;43.33;;;25.65;;
74335;SDS011;62755;-33.398;-70.572;2022-08-21T04:17:19;54.28;;;32.38;;
74335;SDS011;62755;-33.398;-70.572;2022-08-21T04:19:48;34.40;;;19.30;;
74335;SDS011;62755;-33.398;-70.572;2022-08-21T04:22:27;29.67;;;18.48;;
74335;SDS011;62755;-33.398;-70.572;2022-08-21T04:24:57;33.30;;;17.88;;
74335;SDS011;62755;-33.398;-70.572;2022-08-21T04:27:28;26.73;;;15.75;;
74335;SDS011;62755;-33.398;-70.572;2022-08-21T04:29:59;27.75;;;14.27;;
74335;SDS011;62755;-33.398;-70.572;2022-08-21T04:32:29;23.08;;;14.25;;
74335;SDS011;62755;-33.398;-70.572;2022-08-21T04:34:59;33.38;;;14.68;;
74335;SDS011;62755;-33.398;-70.572;2022-08-21T04:37:29;25.27;;;14.48;;
74335;SDS011;62755;-33.398;-70.572;2022-08-21T04:39:59;29.02;;;16.17;;
74335;SDS011;62755;-33.398;-70.572;2022-08-21T04:42:31;26.77;;;15.43;;
74335;SDS011;62755;-33.398;-70.572;2022-08-21T04:45:01;29.13;;;15.60;;
74335;SDS011;62755;-33.398;-70.572;2022-08-21T04:47:31;25.10;;;15.05;;
74335;SDS011;62755;-33.398;-70.572;2022-08-21T04:50:00;30.15;;;17.83;;
74335;SDS011;62755;-33.398;-70.572;2022-08-21T04:52:30;27.42;;;18.15;;
74335;SDS011;62755;-33.398;-70.572;2022-08-21T04:55:00;33.80;;;19.60;;
74335;SDS011;62755;-33.398;-70.572;2022-08-21T04:57:32;41.97;;;20.90;;
74335;SDS011;62755;-33.398;-70.572;2022-08-21T05:00:02;33.13;;;19.55;;
74335;SDS011;62755;-33.398;-70.572;2022-08-21T05:02:33;33.28;;;17.48;;
74335;SDS011;62755;-33.398;-70.572;2022-08-21T05:05:04;34.65;;;17.83;;
74335;SDS011;62755;-33.398;-70.572;2022-08-21T05:07:34;32.45;;;17.65;;
74335;SDS011;62755;-33.398;-70.572;2022-08-21T05:10:05;31.13;;;18.25;;
74335;SDS011;62755;-33.398;-70.572;2022-08-21T05:12:37;35.00;;;18.27;;
74335;SDS011;62755;-33.398;-70.572;2022-08-21T05:15:07;34.55;;;18.20;;
74335;SDS011;62755;-33.398;-70.572;2022-08-21T05:17:39;31.27;;;18.02;;
74335;SDS011;62755;-33.398;-70.572;2022-08-21T05:20:10;33.97;;;19.02;;
74335;SDS011;62755;-33.398;-70.572;2022-08-21T05:22:40;35.35;;;19.27;;
74335;SDS011;62755;-33.398;-70.572;2022-08-21T05:25:10;32.65;;;18.65;;
74335;SDS011;62755;-33.398;-70.572;2022-08-21T05:27:42;40.80;;;17.27;;
74335;SDS011;62755;-33.398;-70.572;2022-08-21T05:30:12;39.70;;;19.30;;
74335;SDS011;62755;-33.398;-70.572;2022-08-21T05:32:42;42.17;;;20.95;;
74335;SDS011;62755;-33.398;-70.572;2022-08-21T05:35:12;41.85;;;22.02;;
74335;SDS011;62755;-33.398;-70.572;2022-08-21T05:37:42;36.40;;;19.42;;
74335;SDS011;62755;-33.398;-70.572;2022-08-21T05:40:11;48.40;;;20.23;;
74335;SDS011;62755;-33.398;-70.572;2022-08-21T05:42:43;43.83;;;21.30;;
74335;SDS011;62755;-33.398;-70.572;2022-08-21T05:45:13;41.53;;;21.35;;
74335;SDS011;62755;-33.398;-70.572;2022-08-21T05:47:43;43.45;;;22.27;;
74335;SDS011;62755;-33.398;-70.572;2022-08-21T05:50:13;42.28;;;21.40;;
74335;SDS011;62755;-33.398;-70.572;2022-08-21T05:52:42;43.40;;;22.15;;
74335;SDS011;62755;-33.398;-70.572;2022-08-21T05:55:12;47.65;;;23.23;;
74335;SDS011;62755;-33.398;-70.572;2022-08-21T05:57:43;47.25;;;22.70;;
74335;SDS011;62755;-33.398;-70.572;2022-08-21T06:00:14;42.67;;;23.80;;
74335;SDS011;62755;-33.398;-70.572;2022-08-21T06:02:44;50.42;;;24.67;;
74335;SDS011;62755;-33.398;-70.572;2022-08-21T06:05:14;51.35;;;25.58;;
74335;SDS011;62755;-33.398;-70.572;2022-08-21T06:07:44;45.50;;;25.65;;
74335;SDS011;62755;-33.398;-70.572;2022-08-21T06:10:13;45.33;;;26.08;;
74335;SDS011;62755;-33.398;-70.572;2022-08-21T06:12:45;50.30;;;26.98;;
74335;SDS011;62755;-33.398;-70.572;2022-08-21T06:15:14;54.28;;;26.13;;
74335;SDS011;62755;-33.398;-70.572;2022-08-21T06:17:44;51.00;;;26.90;;
74335;SDS011;62755;-33.398;-70.572;2022-08-21T06:20:14;50.38;;;25.55;;
74335;SDS011;62755;-33.398;-70.572;2022-08-21T06:22:44;54.60;;;26.42;;
74335;SDS011;62755;-33.398;-70.572;2022-08-21T06:25:13;50.65;;;26.60;;
74335;SDS011;62755;-33.398;-70.572;2022-08-21T06:27:46;51.30;;;27.13;;
74335;SDS011;62755;-33.398;-70.572;2022-08-21T06:30:15;49.60;;;26.70;;
74335;SDS011;62755;-33.398;-70.572;2022-08-21T06:32:45;61.00;;;27.42;;
74335;SDS011;62755;-33.398;-70.572;2022-08-21T06:35:15;51.30;;;27.33;;
74335;SDS011;62755;-33.398;-70.572;2022-08-21T06:37:45;46.13;;;25.00;;
74335;SDS011;62755;-33.398;-70.572;2022-08-21T06:40:15;52.45;;;26.15;;
74335;SDS011;62755;-33.398;-70.572;2022-08-21T06:42:46;51.75;;;25.70;;
74335;SDS011;62755;-33.398;-70.572;2022-08-21T06:45:16;53.55;;;27.40;;
74335;SDS011;62755;-33.398;-70.572;2022-08-21T06:47:46;57.35;;;29.02;;
74335;SDS011;62755;-33.398;-70.572;2022-08-21T06:50:15;53.25;;;28.17;;
74335;SDS011;62755;-33.398;-70.572;2022-08-21T06:52:45;62.50;;;28.10;;
74335;SDS011;62755;-33.398;-70.572;2022-08-21T06:55:15;54.95;;;25.98;;
74335;SDS011;62755;-33.398;-70.572;2022-08-21T06:57:46;44.83;;;24.83;;
74335;SDS011;62755;-33.398;-70.572;2022-08-21T07:00:16;50.05;;;23.33;;
74335;SDS011;62755;-33.398;-70.572;2022-08-21T07:02:45;56.17;;;25.08;;
74335;SDS011;62755;-33.398;-70.572;2022-08-21T07:05:15;44.30;;;23.10;;
74335;SDS011;62755;-33.398;-70.572;2022-08-21T07:07:45;45.67;;;23.73;;
74335;SDS011;62755;-33.398;-70.572;2022-08-21T07:10:15;37.22;;;22.13;;
74335;SDS011;62755;-33.398;-70.572;2022-08-21T07:12:46;36.13;;;21.52;;
74335;SDS011;62755;-33.398;-70.572;2022-08-21T07:15:16;43.85;;;22.48;;
74335;SDS011;62755;-33.398;-70.572;2022-08-21T07:17:46;36.30;;;21.48;;
74335;SDS011;62755;-33.398;-70.572;2022-08-21T07:20:16;33.22;;;20.85;;
74335;SDS011;62755;-33.398;-70.572;2022-08-21T07:22:46;41.90;;;20.33;;
74335;SDS011;62755;-33.398;-70.572;2022-08-21T07:25:16;35.10;;;21.42;;
74335;SDS011;62755;-33.398;-70.572;2022-08-21T07:27:47;33.85;;;22.02;;
74335;SDS011;62755;-33.398;-70.572;2022-08-21T07:30:17;36.10;;;20.95;;
74335;SDS011;62755;-33.398;-70.572;2022-08-21T07:32:47;41.53;;;22.27;;
74335;SDS011;62755;-33.398;-70.572;2022-08-21T07:35:17;39.03;;;22.55;;
74335;SDS011;62755;-33.398;-70.572;2022-08-21T07:37:48;44.53;;;23.50;;
74335;SDS011;62755;-33.398;-70.572;2022-08-21T07:40:18;36.80;;;22.60;;
74335;SDS011;62755;-33.398;-70.572;2022-08-21T07:42:51;42.05;;;23.85;;
74335;SDS011;62755;-33.398;-70.572;2022-08-21T07:45:21;40.50;;;24.15;;
74335;SDS011;62755;-33.398;-70.572;2022-08-21T07:47:52;33.92;;;22.52;;
74335;SDS011;62755;-33.398;-70.572;2022-08-21T07:50:22;41.10;;;23.75;;
74335;SDS011;62755;-33.398;-70.572;2022-08-21T07:52:52;38.38;;;23.05;;
74335;SDS011;62755;-33.398;-70.572;2022-08-21T07:55:22;43.17;;;23.02;;
74335;SDS011;62755;-33.398;-70.572;2022-08-21T07:57:53;39.83;;;23.20;;
74335;SDS011;62755;-33.398;-70.572;2022-08-21T08:00:24;44.72;;;24.33;;
74335;SDS011;62755;-33.398;-70.572;2022-08-21T08:02:54;36.35;;;22.98;;
74335;SDS011;62755;-33.398;-70.572;2022-08-21T08:05:25;38.03;;;22.80;;
74335;SDS011;62755;-33.398;-70.572;2022-08-21T08:07:57;36.30;;;23.92;;
74335;SDS011;62755;-33.398;-70.572;2022-08-21T08:10:26;39.70;;;24.55;;
74335;SDS011;62755;-33.398;-70.572;2022-08-21T08:12:58;45.20;;;22.27;;
74335;SDS011;62755;-33.398;-70.572;2022-08-21T08:15:27;43.45;;;23.45;;
74335;SDS011;62755;-33.398;-70.572;2022-08-21T08:17:58;38.78;;;23.92;;
74335;SDS011;62755;-33.398;-70.572;2022-08-21T08:20:27;36.35;;;23.27;;
74335;SDS011;62755;-33.398;-70.572;2022-08-21T08:22:57;38.40;;;22.75;;
74335;SDS011;62755;-33.398;-70.572;2022-08-21T08:25:27;41.63;;;23.33;;
74335;SDS011;62755;-33.398;-70.572;2022-08-21T08:27:59;39.22;;;22.80;;
74335;SDS011;62755;-33.398;-70.572;2022-08-21T08:30:29;36.75;;;23.35;;
74335;SDS011;62755;-33.398;-70.572;2022-08-21T08:32:58;41.47;;;21.88;;
74335;SDS011;62755;-33.398;-70.572;2022-08-21T08:35:28;45.00;;;22.77;;
74335;SDS011;62755;-33.398;-70.572;2022-08-21T08:37:58;36.45;;;22.25;;
74335;SDS011;62755;-33.398;-70.572;2022-08-21T08:40:30;43.67;;;23.27;;
74335;SDS011;62755;-33.398;-70.572;2022-08-21T08:43:05;45.63;;;22.35;;
74335;SDS011;62755;-33.398;-70.572;2022-08-21T08:45:36;44.13;;;22.38;;
74335;SDS011;62755;-33.398;-70.572;2022-08-21T08:48:08;41.97;;;24.08;;
74335;SDS011;62755;-33.398;-70.572;2022-08-21T08:50:42;40.65;;;22.92;;
74335;SDS011;62755;-33.398;-70.572;2022-08-21T08:53:17;41.25;;;22.67;;
74335;SDS011;62755;-33.398;-70.572;2022-08-21T08:55:50;35.85;;;21.63;;
74335;SDS011;62755;-33.398;-70.572;2022-08-21T08:58:25;44.08;;;22.73;;
74335;SDS011;62755;-33.398;-70.572;2022-08-21T09:00:58;39.53;;;22.00;;
74335;SDS011;62755;-33.398;-70.572;2022-08-21T09:03:28;33.30;;;21.33;;
74335;SDS011;62755;-33.398;-70.572;2022-08-21T09:05:59;31.90;;;20.35;;
74335;SDS011;62755;-33.398;-70.572;2022-08-21T09:08:43;35.42;;;20.88;;
74335;SDS011;62755;-33.398;-70.572;2022-08-21T09:11:21;40.28;;;21.13;;
74335;SDS011;62755;-33.398;-70.572;2022-08-21T09:14:00;40.72;;;19.75;;
74335;SDS011;62755;-33.398;-70.572;2022-08-21T09:16:40;33.55;;;19.67;;
74335;SDS011;62755;-33.398;-70.572;2022-08-21T09:19:23;34.22;;;17.95;;
74335;SDS011;62755;-33.398;-70.572;2022-08-21T09:22:05;38.45;;;17.90;;
74335;SDS011;62755;-33.398;-70.572;2022-08-21T09:24:47;42.70;;;17.80;;
74335;SDS011;62755;-33.398;-70.572;2022-08-21T09:27:26;34.90;;;19.45;;
74335;SDS011;62755;-33.398;-70.572;2022-08-21T09:29:58;38.88;;;22.20;;
74335;SDS011;62755;-33.398;-70.572;2022-08-21T09:32:29;41.75;;;22.40;;
74335;SDS011;62755;-33.398;-70.572;2022-08-21T09:35:05;37.47;;;20.73;;
74335;SDS011;62755;-33.398;-70.572;2022-08-21T09:37:46;42.35;;;21.85;;
74335;SDS011;62755;-33.398;-70.572;2022-08-21T09:40:28;47.95;;;22.92;;
74335;SDS011;62755;-33.398;-70.572;2022-08-21T09:43:04;43.08;;;21.75;;
74335;SDS011;62755;-33.398;-70.572;2022-08-21T09:45:37;57.50;;;23.48;;
74335;SDS011;62755;-33.398;-70.572;2022-08-21T09:48:11;47.22;;;22.67;;
74335;SDS011;62755;-33.398;-70.572;2022-08-21T09:50:42;42.20;;;22.10;;
74335;SDS011;62755;-33.398;-70.572;2022-08-21T09:53:16;43.42;;;21.02;;
74335;SDS011;62755;-33.398;-70.572;2022-08-21T09:55:49;41.42;;;21.33;;
74335;SDS011;62755;-33.398;-70.572;2022-08-21T09:58:38;48.42;;;21.17;;
74335;SDS011;62755;-33.398;-70.572;2022-08-21T10:01:15;42.03;;;20.50;;
74335;SDS011;62755;-33.398;-70.572;2022-08-21T10:03:45;44.30;;;22.08;;
74335;SDS011;62755;-33.398;-70.572;2022-08-21T10:06:21;39.30;;;20.50;;
74335;SDS011;62755;-33.398;-70.572;2022-08-21T10:09:03;43.85;;;21.58;;
74335;SDS011;62755;-33.398;-70.572;2022-08-21T10:11:33;47.47;;;21.60;;
74335;SDS011;62755;-33.398;-70.572;2022-08-21T10:14:06;37.10;;;19.70;;
74335;SDS011;62755;-33.398;-70.572;2022-08-21T10:16:49;39.67;;;21.10;;
74335;SDS011;62755;-33.398;-70.572;2022-08-21T10:19:29;43.63;;;21.00;;
74335;SDS011;62755;-33.398;-70.572;2022-08-21T10:22:09;36.45;;;17.75;;
74335;SDS011;62755;-33.398;-70.572;2022-08-21T10:24:52;38.67;;;18.52;;
74335;SDS011;62755;-33.398;-70.572;2022-08-21T10:27:28;36.03;;;17.88;;
74335;SDS011;62755;-33.398;-70.572;2022-08-21T10:30:05;33.50;;;17.13;;
74335;SDS011;62755;-33.398;-70.572;2022-08-21T10:32:43;32.50;;;15.93;;
74335;SDS011;62755;-33.398;-70.572;2022-08-21T10:41:09;28.52;;;13.55;;
74335;SDS011;62755;-33.398;-70.572;2022-08-21T10:43:49;33.38;;;14.60;;
74335;SDS011;62755;-33.398;-70.572;2022-08-21T10:46:26;32.03;;;14.60;;
74335;SDS011;62755;-33.398;-70.572;2022-08-21T10:49:13;28.50;;;13.48;;
74335;SDS011;62755;-33.398;-70.572;2022-08-21T10:51:51;26.92;;;13.77;;
74335;SDS011;62755;-33.398;-70.572;2022-08-21T10:54:26;25.75;;;12.52;;
74335;SDS011;62755;-33.398;-70.572;2022-08-21T10:57:07;30.08;;;14.93;;
74335;SDS011;62755;-33.398;-70.572;2022-08-21T10:59:45;35.83;;;15.48;;
74335;SDS011;62755;-33.398;-70.572;2022-08-21T11:02:18;28.48;;;13.60;;
74335;SDS011;62755;-33.398;-70.572;2022-08-21T11:04:56;35.95;;;14.52;;
74335;SDS011;62755;-33.398;-70.572;2022-08-21T11:07:30;40.85;;;17.42;;
74335;SDS011;62755;-33.398;-70.572;2022-08-21T11:10:04;39.47;;;16.00;;
74335;SDS011;62755;-33.398;-70.572;2022-08-21T11:12:40;37.38;;;17.13;;
74335;SDS011;62755;-33.398;-70.572;2022-08-21T11:15:17;49.15;;;23.10;;
74335;SDS011;62755;-33.398;-70.572;2022-08-21T11:17:57;45.05;;;22.88;;
74335;SDS011;62755;-33.398;-70.572;2022-08-21T11:20:40;38.58;;;16.85;;
74335;SDS011;62755;-33.398;-70.572;2022-08-21T11:23:16;33.65;;;17.08;;
74335;SDS011;62755;-33.398;-70.572;2022-08-21T11:25:51;35.20;;;18.63;;
74335;SDS011;62755;-33.398;-70.572;2022-08-21T11:28:28;32.45;;;18.65;;
74335;SDS011;62755;-33.398;-70.572;2022-08-21T11:31:05;45.55;;;23.65;;
74335;SDS011;62755;-33.398;-70.572;2022-08-21T11:33:49;40.78;;;23.42;;
74335;SDS011;62755;-33.398;-70.572;2022-08-21T11:36:32;44.33;;;24.95;;
74335;SDS011;62755;-33.398;-70.572;2022-08-21T11:39:08;49.47;;;27.80;;
74335;SDS011;62755;-33.398;-70.572;2022-08-21T11:41:45;44.95;;;24.50;;
74335;SDS011;62755;-33.398;-70.572;2022-08-21T11:44:23;36.97;;;20.80;;
74335;SDS011;62755;-33.398;-70.572;2022-08-21T11:47:07;42.47;;;21.08;;
74335;SDS011;62755;-33.398;-70.572;2022-08-21T11:49:46;40.05;;;21.60;;
74335;SDS011;62755;-33.398;-70.572;2022-08-21T11:52:27;37.63;;;20.48;;
74335;SDS011;62755;-33.398;-70.572;2022-08-21T11:55:03;47.03;;;23.20;;
74335;SDS011;62755;-33.398;-70.572;2022-08-21T11:57:37;47.95;;;23.02;;
74335;SDS011;62755;-33.398;-70.572;2022-08-21T12:00:15;42.80;;;22.98;;
74335;SDS011;62755;-33.398;-70.572;2022-08-21T12:02:48;43.25;;;21.30;;
74335;SDS011;62755;-33.398;-70.572;2022-08-21T12:05:25;39.38;;;20.55;;
74335;SDS011;62755;-33.398;-70.572;2022-08-21T12:08:03;42.25;;;20.80;;
74335;SDS011;62755;-33.398;-70.572;2022-08-21T12:10:35;34.20;;;16.43;;
74335;SDS011;62755;-33.398;-70.572;2022-08-21T12:13:08;36.53;;;16.15;;
74335;SDS011;62755;-33.398;-70.572;2022-08-21T12:15:40;31.05;;;15.77;;
74335;SDS011;62755;-33.398;-70.572;2022-08-21T12:18:20;40.08;;;16.05;;
74335;SDS011;62755;-33.398;-70.572;2022-08-21T12:20:59;34.28;;;15.32;;
74335;SDS011;62755;-33.398;-70.572;2022-08-21T12:23:33;49.33;;;20.75;;
74335;SDS011;62755;-33.398;-70.572;2022-08-21T12:26:31;39.90;;;17.88;;
74335;SDS011;62755;-33.398;-70.572;2022-08-21T12:29:05;36.92;;;15.40;;
74335;SDS011;62755;-33.398;-70.572;2022-08-21T12:31:55;39.88;;;17.55;;
74335;SDS011;62755;-33.398;-70.572;2022-08-21T12:34:30;38.47;;;20.13;;
74335;SDS011;62755;-33.398;-70.572;2022-08-21T12:37:04;35.22;;;16.95;;
74335;SDS011;62755;-33.398;-70.572;2022-08-21T12:39:45;35.90;;;15.00;;
74335;SDS011;62755;-33.398;-70.572;2022-08-21T12:42:18;29.58;;;13.05;;
74335;SDS011;62755;-33.398;-70.572;2022-08-21T12:44:50;27.45;;;12.30;;
74335;SDS011;62755;-33.398;-70.572;2022-08-21T12:47:28;29.23;;;14.40;;
74335;SDS011;62755;-33.398;-70.572;2022-08-21T12:50:02;29.83;;;12.52;;
74335;SDS011;62755;-33.398;-70.572;2022-08-21T12:52:38;31.60;;;12.70;;
74335;SDS011;62755;-33.398;-70.572;2022-08-21T12:55:14;21.75;;;11.77;;
74335;SDS011;62755;-33.398;-70.572;2022-08-21T12:57:53;24.92;;;12.52;;
74335;SDS011;62755;-33.398;-70.572;2022-08-21T13:00:24;26.25;;;12.05;;
74335;SDS011;62755;-33.398;-70.572;2022-08-21T13:02:55;26.27;;;11.13;;
74335;SDS011;62755;-33.398;-70.572;2022-08-21T13:05:30;22.67;;;10.05;;
74335;SDS011;62755;-33.398;-70.572;2022-08-21T13:08:03;23.38;;;12.23;;
74335;SDS011;62755;-33.398;-70.572;2022-08-21T13:10:36;20.85;;;11.25;;
74335;SDS011;62755;-33.398;-70.572;2022-08-21T13:13:10;27.55;;;13.93;;
74335;SDS011;62755;-33.398;-70.572;2022-08-21T13:15:44;37.00;;;17.00;;
74335;SDS011;62755;-33.398;-70.572;2022-08-21T13:18:22;35.83;;;18.13;;
74335;SDS011;62755;-33.398;-70.572;2022-08-21T13:21:02;38.50;;;19.83;;
74335;SDS011;62755;-33.398;-70.572;2022-08-21T13:23:34;44.20;;;20.33;;
74335;SDS011;62755;-33.398;-70.572;2022-08-21T13:26:13;44.05;;;22.50;;
74335;SDS011;62755;-33.398;-70.572;2022-08-21T13:28:44;45.95;;;25.10;;
74335;SDS011;62755;-33.398;-70.572;2022-08-21T13:31:17;57.25;;;26.95;;
74335;SDS011;62755;-33.398;-70.572;2022-08-21T13:33:50;50.28;;;27.65;;
74335;SDS011;62755;-33.398;-70.572;2022-08-21T13:36:24;46.78;;;27.05;;
74335;SDS011;62755;-33.398;-70.572;2022-08-21T13:38:57;62.42;;;29.92;;
74335;SDS011;62755;-33.398;-70.572;2022-08-21T13:41:29;57.33;;;30.98;;
74335;SDS011;62755;-33.398;-70.572;2022-08-21T13:44:01;52.92;;;31.15;;
74335;SDS011;62755;-33.398;-70.572;2022-08-21T13:46:32;61.67;;;33.10;;
74335;SDS011;62755;-33.398;-70.572;2022-08-21T13:49:04;58.55;;;32.65;;
74335;SDS011;62755;-33.398;-70.572;2022-08-21T13:51:36;62.40;;;35.75;;
74335;SDS011;62755;-33.398;-70.572;2022-08-21T13:54:13;63.75;;;35.65;;
74335;SDS011;62755;-33.398;-70.572;2022-08-21T13:56:53;64.82;;;37.28;;
74335;SDS011;62755;-33.398;-70.572;2022-08-21T13:59:24;65.38;;;37.17;;
74335;SDS011;62755;-33.398;-70.572;2022-08-21T14:01:56;54.45;;;35.13;;
74335;SDS011;62755;-33.398;-70.572;2022-08-21T14:04:31;61.33;;;37.33;;
74335;SDS011;62755;-33.398;-70.572;2022-08-21T14:07:14;60.53;;;37.38;;
74335;SDS011;62755;-33.398;-70.572;2022-08-21T14:09:45;63.10;;;38.15;;
74335;SDS011;62755;-33.398;-70.572;2022-08-21T14:12:19;61.30;;;37.28;;
74335;SDS011;62755;-33.398;-70.572;2022-08-21T14:14:54;57.70;;;36.90;;
74335;SDS011;62755;-33.398;-70.572;2022-08-21T14:17:27;60.92;;;37.15;;
74335;SDS011;62755;-33.398;-70.572;2022-08-21T14:19:57;58.85;;;37.78;;